sensor_id;sensor_type;location;lat;lon;timestamp;P1;durP1;ratioP1;P2;durP2;ratioP2
6723;SDS011;3399;52.530;13.304;2023-07-29T00:00:45;7.13;;;6.60;;
6723;SDS011;3399;52.530;13.304;2023-07-29T00:03:11;9.03;;;7.03;;
6723;SDS011;3399;52.530;13.304;2023-07-29T00:05:36;10.17;;;7.27;;
6723;SDS011;3399;52.530;13.304;2023-07-29T00:08:02;6.63;;;6.03;;
6723;SDS011;3399;52.530;13.304;2023-07-29T00:10:28;7.40;;;6.70;;
6723;SDS011;3399;52.530;13.304;2023-07-29T00:12:55;7.20;;;6.60;;
6723;SDS011;3399;52.530;13.304;2023-07-29T00:15:21;9.80;;;6.97;;
6723;SDS011;3399;52.530;13.304;2023-07-29T00:17:46;7.60;;;6.73;;
6723;SDS011;3399;52.530;13.304;2023-07-29T00:20:12;8.07;;;6.63;;
6723;SDS011;3399;52.530;13.304;2023-07-29T00:22:37;7.87;;;7.17;;
6723;SDS011;3399;52.530;13.304;2023-07-29T00:25:03;7.70;;;6.80;;
6723;SDS011;3399;52.530;13.304;2023-07-29T00:27:29;9.20;;;8.40;;
6723;SDS011;3399;52.530;13.304;2023-07-29T00:29:54;8.60;;;7.90;;
6723;SDS011;3399;52.530;13.304;2023-07-29T00:32:20;10.07;;;7.37;;
6723;SDS011;3399;52.530;13.304;2023-07-29T00:34:45;8.87;;;8.07;;
6723;SDS011;3399;52.530;13.304;2023-07-29T00:37:11;9.07;;;8.20;;
6723;SDS011;3399;52.530;13.304;2023-07-29T00:39:37;8.40;;;7.63;;
6723;SDS011;3399;52.530;13.304;2023-07-29T00:42:03;8.77;;;7.97;;
6723;SDS011;3399;52.530;13.304;2023-07-29T00:44:29;8.07;;;7.37;;
6723;SDS011;3399;52.530;13.304;2023-07-29T00:46:56;8.40;;;7.70;;
6723;SDS011;3399;52.530;13.304;2023-07-29T00:49:23;8.10;;;7.30;;
6723;SDS011;3399;52.530;13.304;2023-07-29T00:51:49;7.93;;;7.23;;
6723;SDS011;3399;52.530;13.304;2023-07-29T00:54:15;9.97;;;7.87;;
6723;SDS011;3399;52.530;13.304;2023-07-29T00:56:41;8.43;;;7.53;;
6723;SDS011;3399;52.530;13.304;2023-07-29T00:59:07;8.17;;;7.37;;
6723;SDS011;3399;52.530;13.304;2023-07-29T01:01:33;8.03;;;7.33;;
6723;SDS011;3399;52.530;13.304;2023-07-29T01:03:58;8.47;;;7.80;;
6723;SDS011;3399;52.530;13.304;2023-07-29T01:09:25;8.30;;;7.60;;
6723;SDS011;3399;52.530;13.304;2023-07-29T01:14:49;8.30;;;7.47;;
6723;SDS011;3399;52.530;13.304;2023-07-29T01:17:38;8.47;;;7.67;;
6723;SDS011;3399;52.530;13.304;2023-07-29T01:20:08;8.73;;;7.80;;
6723;SDS011;3399;52.530;13.304;2023-07-29T01:22:38;7.57;;;6.87;;
6723;SDS011;3399;52.530;13.304;2023-07-29T01:25:05;9.17;;;7.50;;
6723;SDS011;3399;52.530;13.304;2023-07-29T01:27:30;9.70;;;7.60;;
6723;SDS011;3399;52.530;13.304;2023-07-29T01:29:57;7.93;;;6.60;;
6723;SDS011;3399;52.530;13.304;2023-07-29T01:32:28;9.83;;;7.50;;
6723;SDS011;3399;52.530;13.304;2023-07-29T01:35:03;8.97;;;8.17;;
6723;SDS011;3399;52.530;13.304;2023-07-29T01:37:30;8.80;;;7.83;;
6723;SDS011;3399;52.530;13.304;2023-07-29T01:39:59;8.30;;;7.60;;
6723;SDS011;3399;52.530;13.304;2023-07-29T01:42:25;8.63;;;7.93;;
6723;SDS011;3399;52.530;13.304;2023-07-29T01:44:51;7.33;;;6.67;;
6723;SDS011;3399;52.530;13.304;2023-07-29T01:47:17;8.87;;;7.53;;
6723;SDS011;3399;52.530;13.304;2023-07-29T01:49:43;7.90;;;7.27;;
6723;SDS011;3399;52.530;13.304;2023-07-29T01:52:08;7.97;;;7.37;;
6723;SDS011;3399;52.530;13.304;2023-07-29T01:54:34;8.43;;;7.63;;
6723;SDS011;3399;52.530;13.304;2023-07-29T01:56:59;9.53;;;7.90;;
6723;SDS011;3399;52.530;13.304;2023-07-29T01:59:25;7.43;;;6.73;;
6723;SDS011;3399;52.530;13.304;2023-07-29T02:01:50;11.20;;;7.93;;
6723;SDS011;3399;52.530;13.304;2023-07-29T02:04:16;9.37;;;7.93;;
6723;SDS011;3399;52.530;13.304;2023-07-29T02:06:42;8.77;;;7.87;;
6723;SDS011;3399;52.530;13.304;2023-07-29T02:09:08;9.67;;;8.67;;
6723;SDS011;3399;52.530;13.304;2023-07-29T02:11:34;10.70;;;9.50;;
6723;SDS011;3399;52.530;13.304;2023-07-29T02:13:59;12.00;;;7.47;;
6723;SDS011;3399;52.530;13.304;2023-07-29T02:16:25;9.10;;;8.30;;
6723;SDS011;3399;52.530;13.304;2023-07-29T02:18:50;9.60;;;8.20;;
6723;SDS011;3399;52.530;13.304;2023-07-29T02:21:16;7.93;;;7.33;;
6723;SDS011;3399;52.530;13.304;2023-07-29T02:23:41;8.63;;;7.83;;
6723;SDS011;3399;52.530;13.304;2023-07-29T02:26:07;8.60;;;7.90;;
6723;SDS011;3399;52.530;13.304;2023-07-29T02:28:33;8.33;;;7.53;;
6723;SDS011;3399;52.530;13.304;2023-07-29T02:31:14;8.50;;;7.80;;
6723;SDS011;3399;52.530;13.304;2023-07-29T02:33:47;9.57;;;8.20;;
6723;SDS011;3399;52.530;13.304;2023-07-29T02:36:13;9.17;;;8.27;;
6723;SDS011;3399;52.530;13.304;2023-07-29T02:38:39;8.60;;;7.80;;
6723;SDS011;3399;52.530;13.304;2023-07-29T02:41:05;8.00;;;7.20;;
6723;SDS011;3399;52.530;13.304;2023-07-29T02:43:31;12.67;;;9.17;;
6723;SDS011;3399;52.530;13.304;2023-07-29T02:45:56;8.53;;;7.83;;
6723;SDS011;3399;52.530;13.304;2023-07-29T02:48:22;8.63;;;7.67;;
6723;SDS011;3399;52.530;13.304;2023-07-29T02:50:47;8.67;;;7.83;;
6723;SDS011;3399;52.530;13.304;2023-07-29T02:53:13;8.33;;;7.63;;
6723;SDS011;3399;52.530;13.304;2023-07-29T02:55:41;10.07;;;8.50;;
6723;SDS011;3399;52.530;13.304;2023-07-29T02:58:07;9.53;;;8.73;;
6723;SDS011;3399;52.530;13.304;2023-07-29T03:00:33;9.43;;;8.03;;
6723;SDS011;3399;52.530;13.304;2023-07-29T03:02:58;8.80;;;8.10;;
6723;SDS011;3399;52.530;13.304;2023-07-29T03:05:24;10.33;;;8.53;;
6723;SDS011;3399;52.530;13.304;2023-07-29T03:07:53;9.03;;;8.23;;
6723;SDS011;3399;52.530;13.304;2023-07-29T03:10:18;8.37;;;7.67;;
6723;SDS011;3399;52.530;13.304;2023-07-29T03:12:45;8.77;;;7.87;;
6723;SDS011;3399;52.530;13.304;2023-07-29T03:21:07;8.53;;;7.77;;
6723;SDS011;3399;52.530;13.304;2023-07-29T03:23:32;8.70;;;7.90;;
6723;SDS011;3399;52.530;13.304;2023-07-29T03:25:59;9.47;;;8.67;;
6723;SDS011;3399;52.530;13.304;2023-07-29T03:28:26;9.00;;;8.10;;
6723;SDS011;3399;52.530;13.304;2023-07-29T03:30:53;8.37;;;7.67;;
6723;SDS011;3399;52.530;13.304;2023-07-29T03:33:19;8.23;;;7.47;;
6723;SDS011;3399;52.530;13.304;2023-07-29T03:35:45;8.03;;;7.33;;
6723;SDS011;3399;52.530;13.304;2023-07-29T03:38:11;8.17;;;7.30;;
6723;SDS011;3399;52.530;13.304;2023-07-29T03:40:37;8.83;;;8.03;;
6723;SDS011;3399;52.530;13.304;2023-07-29T03:43:03;9.73;;;7.60;;
6723;SDS011;3399;52.530;13.304;2023-07-29T03:45:29;9.03;;;8.13;;
6723;SDS011;3399;52.530;13.304;2023-07-29T03:47:54;9.10;;;8.27;;
6723;SDS011;3399;52.530;13.304;2023-07-29T03:50:20;9.33;;;8.23;;
6723;SDS011;3399;52.530;13.304;2023-07-29T03:52:46;8.53;;;7.80;;
6723;SDS011;3399;52.530;13.304;2023-07-29T03:55:11;8.67;;;7.23;;
6723;SDS011;3399;52.530;13.304;2023-07-29T03:57:36;8.43;;;7.73;;
6723;SDS011;3399;52.530;13.304;2023-07-29T04:00:02;8.80;;;7.90;;
6723;SDS011;3399;52.530;13.304;2023-07-29T04:02:28;7.30;;;6.60;;
6723;SDS011;3399;52.530;13.304;2023-07-29T04:04:54;8.00;;;7.30;;
6723;SDS011;3399;52.530;13.304;2023-07-29T04:07:19;9.53;;;7.30;;
6723;SDS011;3399;52.530;13.304;2023-07-29T04:09:45;7.83;;;7.13;;
6723;SDS011;3399;52.530;13.304;2023-07-29T04:12:10;7.90;;;7.30;;
6723;SDS011;3399;52.530;13.304;2023-07-29T04:14:36;8.53;;;7.70;;
6723;SDS011;3399;52.530;13.304;2023-07-29T04:17:01;8.47;;;7.77;;
6723;SDS011;3399;52.530;13.304;2023-07-29T04:19:27;8.13;;;7.37;;
6723;SDS011;3399;52.530;13.304;2023-07-29T04:21:52;10.10;;;9.03;;
6723;SDS011;3399;52.530;13.304;2023-07-29T04:24:18;8.70;;;8.00;;
6723;SDS011;3399;52.530;13.304;2023-07-29T04:26:45;8.87;;;7.90;;
6723;SDS011;3399;52.530;13.304;2023-07-29T04:29:10;8.47;;;7.77;;
6723;SDS011;3399;52.530;13.304;2023-07-29T04:31:36;8.60;;;7.80;;
6723;SDS011;3399;52.530;13.304;2023-07-29T04:34:02;8.20;;;7.53;;
6723;SDS011;3399;52.530;13.304;2023-07-29T04:36:27;8.50;;;7.70;;
6723;SDS011;3399;52.530;13.304;2023-07-29T04:38:53;8.33;;;7.37;;
6723;SDS011;3399;52.530;13.304;2023-07-29T04:41:18;8.47;;;7.67;;
6723;SDS011;3399;52.530;13.304;2023-07-29T04:43:44;7.33;;;6.73;;
6723;SDS011;3399;52.530;13.304;2023-07-29T04:46:09;8.20;;;7.40;;
6723;SDS011;3399;52.530;13.304;2023-07-29T04:48:35;8.03;;;7.43;;
6723;SDS011;3399;52.530;13.304;2023-07-29T04:51:00;7.97;;;7.27;;
6723;SDS011;3399;52.530;13.304;2023-07-29T04:53:26;8.00;;;7.30;;
6723;SDS011;3399;52.530;13.304;2023-07-29T04:55:51;8.17;;;7.33;;
6723;SDS011;3399;52.530;13.304;2023-07-29T04:58:16;8.03;;;7.43;;
6723;SDS011;3399;52.530;13.304;2023-07-29T05:00:42;6.97;;;6.47;;
6723;SDS011;3399;52.530;13.304;2023-07-29T05:03:07;8.60;;;7.40;;
6723;SDS011;3399;52.530;13.304;2023-07-29T05:05:33;8.00;;;7.13;;
6723;SDS011;3399;52.530;13.304;2023-07-29T05:07:58;7.63;;;6.93;;
6723;SDS011;3399;52.530;13.304;2023-07-29T05:10:24;8.60;;;7.67;;
6723;SDS011;3399;52.530;13.304;2023-07-29T05:12:49;7.53;;;6.83;;
6723;SDS011;3399;52.530;13.304;2023-07-29T05:15:15;8.50;;;7.13;;
6723;SDS011;3399;52.530;13.304;2023-07-29T05:17:41;8.00;;;7.40;;
6723;SDS011;3399;52.530;13.304;2023-07-29T05:20:06;7.17;;;6.57;;
6723;SDS011;3399;52.530;13.304;2023-07-29T05:22:32;7.03;;;6.43;;
6723;SDS011;3399;52.530;13.304;2023-07-29T05:24:58;7.43;;;6.83;;
6723;SDS011;3399;52.530;13.304;2023-07-29T05:27:23;7.90;;;7.10;;
6723;SDS011;3399;52.530;13.304;2023-07-29T05:29:49;6.97;;;6.37;;
6723;SDS011;3399;52.530;13.304;2023-07-29T05:32:14;7.27;;;6.67;;
6723;SDS011;3399;52.530;13.304;2023-07-29T05:34:40;7.57;;;6.80;;
6723;SDS011;3399;52.530;13.304;2023-07-29T05:37:05;8.03;;;7.27;;
6723;SDS011;3399;52.530;13.304;2023-07-29T05:39:31;7.27;;;6.67;;
6723;SDS011;3399;52.530;13.304;2023-07-29T05:41:58;8.43;;;7.73;;
6723;SDS011;3399;52.530;13.304;2023-07-29T05:44:23;7.40;;;6.73;;
6723;SDS011;3399;52.530;13.304;2023-07-29T05:46:49;8.23;;;7.37;;
6723;SDS011;3399;52.530;13.304;2023-07-29T05:49:14;7.83;;;7.23;;
6723;SDS011;3399;52.530;13.304;2023-07-29T05:51:40;7.37;;;6.63;;
6723;SDS011;3399;52.530;13.304;2023-07-29T05:54:05;10.10;;;8.53;;
6723;SDS011;3399;52.530;13.304;2023-07-29T05:56:30;7.90;;;7.20;;
6723;SDS011;3399;52.530;13.304;2023-07-29T05:58:56;9.40;;;8.60;;
6723;SDS011;3399;52.530;13.304;2023-07-29T06:01:22;8.83;;;7.77;;
6723;SDS011;3399;52.530;13.304;2023-07-29T06:03:47;8.33;;;7.53;;
6723;SDS011;3399;52.530;13.304;2023-07-29T06:06:13;8.30;;;7.50;;
6723;SDS011;3399;52.530;13.304;2023-07-29T06:08:39;8.37;;;7.57;;
6723;SDS011;3399;52.530;13.304;2023-07-29T06:11:04;7.90;;;7.20;;
6723;SDS011;3399;52.530;13.304;2023-07-29T06:13:31;7.27;;;6.57;;
6723;SDS011;3399;52.530;13.304;2023-07-29T06:15:57;6.90;;;6.30;;
6723;SDS011;3399;52.530;13.304;2023-07-29T06:18:22;6.93;;;6.30;;
6723;SDS011;3399;52.530;13.304;2023-07-29T06:20:48;7.33;;;6.73;;
6723;SDS011;3399;52.530;13.304;2023-07-29T06:23:14;7.83;;;7.03;;
6723;SDS011;3399;52.530;13.304;2023-07-29T06:25:40;7.43;;;6.73;;
6723;SDS011;3399;52.530;13.304;2023-07-29T06:28:05;6.53;;;5.90;;
6723;SDS011;3399;52.530;13.304;2023-07-29T06:30:31;6.03;;;5.63;;
6723;SDS011;3399;52.530;13.304;2023-07-29T06:32:56;6.63;;;6.03;;
6723;SDS011;3399;52.530;13.304;2023-07-29T06:35:22;6.17;;;5.53;;
6723;SDS011;3399;52.530;13.304;2023-07-29T06:37:48;6.67;;;5.83;;
6723;SDS011;3399;52.530;13.304;2023-07-29T06:40:14;6.33;;;5.73;;
6723;SDS011;3399;52.530;13.304;2023-07-29T06:42:39;6.30;;;5.80;;
6723;SDS011;3399;52.530;13.304;2023-07-29T06:45:06;5.70;;;5.20;;
6723;SDS011;3399;52.530;13.304;2023-07-29T06:47:32;6.40;;;5.87;;
6723;SDS011;3399;52.530;13.304;2023-07-29T06:49:57;5.90;;;5.40;;
6723;SDS011;3399;52.530;13.304;2023-07-29T06:52:23;5.97;;;5.30;;
6723;SDS011;3399;52.530;13.304;2023-07-29T06:54:48;6.77;;;6.17;;
6723;SDS011;3399;52.530;13.304;2023-07-29T06:57:14;6.50;;;5.67;;
6723;SDS011;3399;52.530;13.304;2023-07-29T06:59:39;4.93;;;4.43;;
6723;SDS011;3399;52.530;13.304;2023-07-29T07:02:06;5.63;;;5.20;;
6723;SDS011;3399;52.530;13.304;2023-07-29T07:04:31;6.07;;;5.60;;
6723;SDS011;3399;52.530;13.304;2023-07-29T07:06:57;6.70;;;6.10;;
6723;SDS011;3399;52.530;13.304;2023-07-29T07:09:23;5.83;;;5.33;;
6723;SDS011;3399;52.530;13.304;2023-07-29T07:11:48;6.13;;;5.60;;
6723;SDS011;3399;52.530;13.304;2023-07-29T07:14:14;5.83;;;5.40;;
6723;SDS011;3399;52.530;13.304;2023-07-29T07:16:39;5.70;;;5.27;;
6723;SDS011;3399;52.530;13.304;2023-07-29T07:19:05;6.03;;;5.53;;
6723;SDS011;3399;52.530;13.304;2023-07-29T07:21:31;6.73;;;6.10;;
6723;SDS011;3399;52.530;13.304;2023-07-29T07:23:57;6.23;;;5.67;;
6723;SDS011;3399;52.530;13.304;2023-07-29T07:26:23;5.60;;;5.20;;
6723;SDS011;3399;52.530;13.304;2023-07-29T07:28:49;6.77;;;6.07;;
6723;SDS011;3399;52.530;13.304;2023-07-29T07:31:14;5.83;;;5.33;;
6723;SDS011;3399;52.530;13.304;2023-07-29T07:33:41;6.70;;;6.10;;
6723;SDS011;3399;52.530;13.304;2023-07-29T07:36:06;5.90;;;5.40;;
6723;SDS011;3399;52.530;13.304;2023-07-29T07:38:32;6.83;;;5.40;;
6723;SDS011;3399;52.530;13.304;2023-07-29T07:40:58;5.47;;;5.07;;
6723;SDS011;3399;52.530;13.304;2023-07-29T07:43:23;5.93;;;5.43;;
6723;SDS011;3399;52.530;13.304;2023-07-29T07:45:49;5.47;;;4.93;;
6723;SDS011;3399;52.530;13.304;2023-07-29T07:48:15;8.40;;;5.53;;
6723;SDS011;3399;52.530;13.304;2023-07-29T07:50:41;6.17;;;5.67;;
6723;SDS011;3399;52.530;13.304;2023-07-29T07:53:07;5.93;;;5.40;;
6723;SDS011;3399;52.530;13.304;2023-07-29T07:55:33;5.33;;;4.93;;
6723;SDS011;3399;52.530;13.304;2023-07-29T07:57:58;5.80;;;4.70;;
6723;SDS011;3399;52.530;13.304;2023-07-29T08:00:24;4.67;;;4.37;;
6723;SDS011;3399;52.530;13.304;2023-07-29T08:02:49;6.33;;;5.00;;
6723;SDS011;3399;52.530;13.304;2023-07-29T08:05:15;4.77;;;4.47;;
6723;SDS011;3399;52.530;13.304;2023-07-29T08:07:40;4.50;;;4.20;;
6723;SDS011;3399;52.530;13.304;2023-07-29T08:10:06;5.53;;;5.13;;
6723;SDS011;3399;52.530;13.304;2023-07-29T08:12:32;4.60;;;4.20;;
6723;SDS011;3399;52.530;13.304;2023-07-29T08:14:57;4.73;;;4.30;;
6723;SDS011;3399;52.530;13.304;2023-07-29T08:17:23;4.00;;;3.70;;
6723;SDS011;3399;52.530;13.304;2023-07-29T08:19:49;5.60;;;4.17;;
6723;SDS011;3399;52.530;13.304;2023-07-29T08:22:14;4.50;;;3.83;;
6723;SDS011;3399;52.530;13.304;2023-07-29T08:24:42;3.97;;;3.67;;
6723;SDS011;3399;52.530;13.304;2023-07-29T08:27:07;6.20;;;4.63;;
6723;SDS011;3399;52.530;13.304;2023-07-29T08:29:33;4.83;;;3.43;;
6723;SDS011;3399;52.530;13.304;2023-07-29T08:31:58;3.80;;;3.50;;
6723;SDS011;3399;52.530;13.304;2023-07-29T08:34:24;4.57;;;3.90;;
6723;SDS011;3399;52.530;13.304;2023-07-29T08:36:49;3.93;;;3.63;;
6723;SDS011;3399;52.530;13.304;2023-07-29T08:39:15;4.80;;;3.90;;
6723;SDS011;3399;52.530;13.304;2023-07-29T08:44:20;3.60;;;3.30;;
6723;SDS011;3399;52.530;13.304;2023-07-29T08:46:48;3.73;;;3.53;;
6723;SDS011;3399;52.530;13.304;2023-07-29T08:49:15;3.93;;;3.63;;
6723;SDS011;3399;52.530;13.304;2023-07-29T08:51:44;4.40;;;4.00;;
6723;SDS011;3399;52.530;13.304;2023-07-29T08:54:16;3.27;;;2.97;;
6723;SDS011;3399;52.530;13.304;2023-07-29T08:56:41;3.10;;;2.90;;
6723;SDS011;3399;52.530;13.304;2023-07-29T08:59:08;3.70;;;3.27;;
6723;SDS011;3399;52.530;13.304;2023-07-29T09:01:35;3.10;;;2.90;;
6723;SDS011;3399;52.530;13.304;2023-07-29T09:04:00;3.50;;;3.30;;
6723;SDS011;3399;52.530;13.304;2023-07-29T09:06:26;3.60;;;3.30;;
6723;SDS011;3399;52.530;13.304;2023-07-29T09:08:53;3.87;;;3.57;;
6723;SDS011;3399;52.530;13.304;2023-07-29T09:11:19;3.60;;;3.30;;
6723;SDS011;3399;52.530;13.304;2023-07-29T09:13:45;3.53;;;3.23;;
6723;SDS011;3399;52.530;13.304;2023-07-29T09:16:11;3.27;;;3.07;;
6723;SDS011;3399;52.530;13.304;2023-07-29T09:18:38;5.53;;;3.60;;
6723;SDS011;3399;52.530;13.304;2023-07-29T09:21:03;3.50;;;3.30;;
6723;SDS011;3399;52.530;13.304;2023-07-29T09:23:38;3.50;;;3.03;;
6723;SDS011;3399;52.530;13.304;2023-07-29T09:26:07;3.67;;;3.23;;
6723;SDS011;3399;52.530;13.304;2023-07-29T09:28:34;3.37;;;3.17;;
6723;SDS011;3399;52.530;13.304;2023-07-29T09:31:01;3.27;;;2.70;;
6723;SDS011;3399;52.530;13.304;2023-07-29T09:33:27;3.03;;;2.83;;
6723;SDS011;3399;52.530;13.304;2023-07-29T09:35:52;2.63;;;2.53;;
6723;SDS011;3399;52.530;13.304;2023-07-29T09:38:18;3.27;;;3.07;;
6723;SDS011;3399;52.530;13.304;2023-07-29T09:40:54;3.17;;;2.77;;
6723;SDS011;3399;52.530;13.304;2023-07-29T09:43:21;3.20;;;3.00;;
6723;SDS011;3399;52.530;13.304;2023-07-29T09:45:51;3.47;;;3.27;;
6723;SDS011;3399;52.530;13.304;2023-07-29T09:48:17;3.33;;;3.13;;
6723;SDS011;3399;52.530;13.304;2023-07-29T09:50:47;4.70;;;3.33;;
6723;SDS011;3399;52.530;13.304;2023-07-29T09:53:13;3.20;;;2.90;;
6723;SDS011;3399;52.530;13.304;2023-07-29T09:55:39;3.80;;;3.50;;
6723;SDS011;3399;52.530;13.304;2023-07-29T09:58:05;2.97;;;2.77;;
6723;SDS011;3399;52.530;13.304;2023-07-29T10:00:33;3.40;;;3.10;;
6723;SDS011;3399;52.530;13.304;2023-07-29T10:02:59;2.93;;;2.73;;
6723;SDS011;3399;52.530;13.304;2023-07-29T10:05:26;3.07;;;2.77;;
6723;SDS011;3399;52.530;13.304;2023-07-29T10:07:52;3.20;;;2.77;;
6723;SDS011;3399;52.530;13.304;2023-07-29T10:10:19;2.93;;;2.73;;
6723;SDS011;3399;52.530;13.304;2023-07-29T10:12:45;3.73;;;3.37;;
6723;SDS011;3399;52.530;13.304;2023-07-29T10:15:11;2.87;;;2.67;;
6723;SDS011;3399;52.530;13.304;2023-07-29T10:17:38;2.63;;;2.50;;
6723;SDS011;3399;52.530;13.304;2023-07-29T10:20:04;2.37;;;2.27;;
6723;SDS011;3399;52.530;13.304;2023-07-29T10:25:07;2.37;;;2.17;;
6723;SDS011;3399;52.530;13.304;2023-07-29T10:27:43;2.90;;;2.60;;
6723;SDS011;3399;52.530;13.304;2023-07-29T10:30:13;3.30;;;3.00;;
6723;SDS011;3399;52.530;13.304;2023-07-29T10:32:40;3.00;;;2.70;;
6723;SDS011;3399;52.530;13.304;2023-07-29T10:35:09;4.00;;;2.80;;
6723;SDS011;3399;52.530;13.304;2023-07-29T10:37:35;3.47;;;3.27;;
6723;SDS011;3399;52.530;13.304;2023-07-29T10:40:02;3.63;;;3.10;;
6723;SDS011;3399;52.530;13.304;2023-07-29T10:42:32;10.40;;;8.37;;
6723;SDS011;3399;52.530;13.304;2023-07-29T10:44:57;3.30;;;3.10;;
6723;SDS011;3399;52.530;13.304;2023-07-29T10:47:23;3.00;;;2.70;;
6723;SDS011;3399;52.530;13.304;2023-07-29T10:49:51;2.97;;;2.77;;
6723;SDS011;3399;52.530;13.304;2023-07-29T10:55:00;3.23;;;3.00;;
6723;SDS011;3399;52.530;13.304;2023-07-29T10:57:31;3.10;;;2.90;;
6723;SDS011;3399;52.530;13.304;2023-07-29T10:59:58;2.50;;;2.30;;
6723;SDS011;3399;52.530;13.304;2023-07-29T11:02:37;2.70;;;2.50;;
6723;SDS011;3399;52.530;13.304;2023-07-29T11:05:15;3.37;;;2.27;;
6723;SDS011;3399;52.530;13.304;2023-07-29T11:07:46;2.07;;;1.97;;
6723;SDS011;3399;52.530;13.304;2023-07-29T11:10:14;2.47;;;2.30;;
6723;SDS011;3399;52.530;13.304;2023-07-29T11:17:36;4.13;;;1.33;;
6723;SDS011;3399;52.530;13.304;2023-07-29T11:20:04;1.37;;;0.63;;
6723;SDS011;3399;52.530;13.304;2023-07-29T11:22:30;1.40;;;1.23;;
6723;SDS011;3399;52.530;13.304;2023-07-29T11:24:56;1.63;;;1.20;;
6723;SDS011;3399;52.530;13.304;2023-07-29T11:27:21;1.33;;;1.23;;
6723;SDS011;3399;52.530;13.304;2023-07-29T11:29:47;1.70;;;1.43;;
6723;SDS011;3399;52.530;13.304;2023-07-29T11:32:13;1.40;;;1.10;;
6723;SDS011;3399;52.530;13.304;2023-07-29T11:34:40;1.30;;;1.20;;
6723;SDS011;3399;52.530;13.304;2023-07-29T11:37:06;3.03;;;1.40;;
6723;SDS011;3399;52.530;13.304;2023-07-29T11:39:32;3.57;;;1.60;;
6723;SDS011;3399;52.530;13.304;2023-07-29T11:41:58;1.37;;;1.10;;
6723;SDS011;3399;52.530;13.304;2023-07-29T11:44:24;1.33;;;1.23;;
6723;SDS011;3399;52.530;13.304;2023-07-29T11:46:50;2.90;;;1.60;;
6723;SDS011;3399;52.530;13.304;2023-07-29T11:49:15;3.87;;;2.07;;
6723;SDS011;3399;52.530;13.304;2023-07-29T11:51:41;3.50;;;1.60;;
6723;SDS011;3399;52.530;13.304;2023-07-29T11:54:07;4.83;;;2.03;;
6723;SDS011;3399;52.530;13.304;2023-07-29T11:56:34;3.67;;;2.53;;
6723;SDS011;3399;52.530;13.304;2023-07-29T11:58:59;2.67;;;2.43;;
6723;SDS011;3399;52.530;13.304;2023-07-29T12:01:27;5.63;;;3.07;;
6723;SDS011;3399;52.530;13.304;2023-07-29T12:03:53;2.67;;;2.47;;
6723;SDS011;3399;52.530;13.304;2023-07-29T12:06:22;3.57;;;2.80;;
6723;SDS011;3399;52.530;13.304;2023-07-29T12:08:50;4.07;;;3.67;;
6723;SDS011;3399;52.530;13.304;2023-07-29T12:11:25;6.97;;;3.73;;
6723;SDS011;3399;52.530;13.304;2023-07-29T12:13:53;6.73;;;5.03;;
6723;SDS011;3399;52.530;13.304;2023-07-29T12:16:19;5.50;;;4.40;;
6723;SDS011;3399;52.530;13.304;2023-07-29T12:18:44;4.87;;;3.83;;
6723;SDS011;3399;52.530;13.304;2023-07-29T12:21:10;5.03;;;4.07;;
6723;SDS011;3399;52.530;13.304;2023-07-29T12:23:35;4.70;;;4.23;;
6723;SDS011;3399;52.530;13.304;2023-07-29T12:26:01;6.87;;;4.13;;
6723;SDS011;3399;52.530;13.304;2023-07-29T12:28:27;4.30;;;3.90;;
6723;SDS011;3399;52.530;13.304;2023-07-29T12:30:53;4.30;;;3.80;;
6723;SDS011;3399;52.530;13.304;2023-07-29T12:33:35;4.27;;;3.97;;
6723;SDS011;3399;52.530;13.304;2023-07-29T12:36:04;4.57;;;4.17;;
6723;SDS011;3399;52.530;13.304;2023-07-29T12:38:30;4.87;;;4.47;;
6723;SDS011;3399;52.530;13.304;2023-07-29T12:40:55;5.20;;;4.80;;
6723;SDS011;3399;52.530;13.304;2023-07-29T12:43:21;5.67;;;4.63;;
6723;SDS011;3399;52.530;13.304;2023-07-29T12:45:50;5.53;;;5.03;;
6723;SDS011;3399;52.530;13.304;2023-07-29T12:48:15;5.60;;;4.73;;
6723;SDS011;3399;52.530;13.304;2023-07-29T12:50:41;5.73;;;5.17;;
6723;SDS011;3399;52.530;13.304;2023-07-29T12:53:07;5.77;;;5.30;;
6723;SDS011;3399;52.530;13.304;2023-07-29T12:55:35;5.27;;;4.87;;
6723;SDS011;3399;52.530;13.304;2023-07-29T12:58:00;4.67;;;4.27;;
6723;SDS011;3399;52.530;13.304;2023-07-29T13:00:26;4.20;;;3.90;;
6723;SDS011;3399;52.530;13.304;2023-07-29T13:02:52;4.03;;;3.73;;
6723;SDS011;3399;52.530;13.304;2023-07-29T13:05:17;4.40;;;4.00;;
6723;SDS011;3399;52.530;13.304;2023-07-29T13:07:43;4.07;;;3.77;;
6723;SDS011;3399;52.530;13.304;2023-07-29T13:10:09;4.10;;;3.80;;
6723;SDS011;3399;52.530;13.304;2023-07-29T13:12:35;5.00;;;3.73;;
6723;SDS011;3399;52.530;13.304;2023-07-29T13:15:01;5.77;;;5.27;;
6723;SDS011;3399;52.530;13.304;2023-07-29T13:17:27;3.90;;;3.60;;
6723;SDS011;3399;52.530;13.304;2023-07-29T13:19:52;5.53;;;5.07;;
6723;SDS011;3399;52.530;13.304;2023-07-29T13:22:19;4.93;;;4.53;;
6723;SDS011;3399;52.530;13.304;2023-07-29T13:24:45;5.53;;;4.20;;
6723;SDS011;3399;52.530;13.304;2023-07-29T13:27:10;3.87;;;3.47;;
6723;SDS011;3399;52.530;13.304;2023-07-29T13:29:36;2.87;;;2.60;;
6723;SDS011;3399;52.530;13.304;2023-07-29T13:32:01;2.23;;;2.13;;
6723;SDS011;3399;52.530;13.304;2023-07-29T13:34:27;2.67;;;2.50;;
6723;SDS011;3399;52.530;13.304;2023-07-29T13:36:52;4.30;;;2.43;;
6723;SDS011;3399;52.530;13.304;2023-07-29T13:39:18;1.93;;;1.77;;
6723;SDS011;3399;52.530;13.304;2023-07-29T13:41:44;2.53;;;2.33;;
6723;SDS011;3399;52.530;13.304;2023-07-29T13:44:09;2.90;;;1.90;;
6723;SDS011;3399;52.530;13.304;2023-07-29T13:46:35;1.87;;;1.77;;
6723;SDS011;3399;52.530;13.304;2023-07-29T13:49:00;1.97;;;1.57;;
6723;SDS011;3399;52.530;13.304;2023-07-29T13:51:27;1.87;;;1.77;;
6723;SDS011;3399;52.530;13.304;2023-07-29T13:53:52;2.03;;;1.93;;
6723;SDS011;3399;52.530;13.304;2023-07-29T13:56:17;2.20;;;2.00;;
6723;SDS011;3399;52.530;13.304;2023-07-29T13:58:43;1.90;;;1.80;;
6723;SDS011;3399;52.530;13.304;2023-07-29T14:01:09;1.70;;;1.60;;
6723;SDS011;3399;52.530;13.304;2023-07-29T14:03:34;1.43;;;1.33;;
6723;SDS011;3399;52.530;13.304;2023-07-29T14:05:59;1.80;;;1.70;;
6723;SDS011;3399;52.530;13.304;2023-07-29T14:08:25;2.43;;;1.67;;
6723;SDS011;3399;52.530;13.304;2023-07-29T14:10:50;1.83;;;1.17;;
6723;SDS011;3399;52.530;13.304;2023-07-29T14:13:16;1.23;;;1.20;;
6723;SDS011;3399;52.530;13.304;2023-07-29T14:15:41;2.27;;;1.40;;
6723;SDS011;3399;52.530;13.304;2023-07-29T14:18:07;1.10;;;1.10;;
6723;SDS011;3399;52.530;13.304;2023-07-29T14:20:32;1.80;;;1.70;;
6723;SDS011;3399;52.530;13.304;2023-07-29T14:22:58;1.53;;;1.43;;
6723;SDS011;3399;52.530;13.304;2023-07-29T14:25:24;1.30;;;1.30;;
6723;SDS011;3399;52.530;13.304;2023-07-29T14:27:49;1.43;;;1.40;;
6723;SDS011;3399;52.530;13.304;2023-07-29T14:30:15;2.40;;;1.33;;
6723;SDS011;3399;52.530;13.304;2023-07-29T14:32:41;1.30;;;1.20;;
6723;SDS011;3399;52.530;13.304;2023-07-29T14:35:06;1.50;;;1.40;;
6723;SDS011;3399;52.530;13.304;2023-07-29T14:37:33;1.50;;;1.40;;
6723;SDS011;3399;52.530;13.304;2023-07-29T14:39:59;1.17;;;1.13;;
6723;SDS011;3399;52.530;13.304;2023-07-29T14:42:25;1.50;;;1.40;;
6723;SDS011;3399;52.530;13.304;2023-07-29T14:44:51;1.73;;;1.63;;
6723;SDS011;3399;52.530;13.304;2023-07-29T14:47:17;1.50;;;1.40;;
6723;SDS011;3399;52.530;13.304;2023-07-29T14:49:43;1.80;;;1.60;;
6723;SDS011;3399;52.530;13.304;2023-07-29T14:52:09;1.67;;;1.43;;
6723;SDS011;3399;52.530;13.304;2023-07-29T14:54:35;1.77;;;1.67;;
6723;SDS011;3399;52.530;13.304;2023-07-29T14:57:01;1.63;;;1.53;;
6723;SDS011;3399;52.530;13.304;2023-07-29T14:59:27;1.60;;;1.50;;
6723;SDS011;3399;52.530;13.304;2023-07-29T15:01:52;2.17;;;1.97;;
6723;SDS011;3399;52.530;13.304;2023-07-29T15:04:18;1.80;;;1.70;;
6723;SDS011;3399;52.530;13.304;2023-07-29T15:06:43;1.73;;;1.63;;
6723;SDS011;3399;52.530;13.304;2023-07-29T15:09:09;1.97;;;1.87;;
6723;SDS011;3399;52.530;13.304;2023-07-29T15:11:35;1.70;;;1.60;;
6723;SDS011;3399;52.530;13.304;2023-07-29T15:14:01;2.23;;;1.60;;
6723;SDS011;3399;52.530;13.304;2023-07-29T15:16:28;1.67;;;1.57;;
6723;SDS011;3399;52.530;13.304;2023-07-29T15:18:53;2.67;;;2.17;;